Zeus — V2OR — position and weather

sailwx.info

Track history (hours):
 
Tides and Currents Weather Stations Pressure Air Temp Water Temp Dewpoint Dewpoint Depression Visibility Wind Speed Wind Dir Waves Ship Positions

Zeus

Last reported at 2014-Jun-30 14:33 UTC. Time now 2014-Jul-30 19:24 UTC.
Position N 42°14' E 035°05'.
Warning: this ship's position is 30 days out of date.

Length 90 m; draft 4.6 m.

Type: Cargo ship. MMSI: 304011025.

Date/timePositionNaut miles runAvg speedWind from/ knotsBaromVisibWave heightAir tempDewpointWater temp
2014-Jun-30 14:33N 42°14' E 035°05'  
2014-Jun-26 15:14N 37°05' E 023°46'45 9.3
2014-Jun-26 10:22N 36°27' E 023°16'423 8.9
2014-Jun-24 11:04N 36°41' E 014°30'5 9.8
2014-Jun-24 10:34N 36°42' E 014°24'9 9.4
2014-Jun-24 09:34N 36°45' E 014°13'9 9.1
2014-Jun-24 08:33N 36°47' E 014°02'9 9.1
2014-Jun-24 07:33N 36°49' E 013°51'9 9.0
2014-Jun-24 06:33N 36°51' E 013°40'9 8.9
2014-Jun-24 05:33N 36°53' E 013°29'13 8.9
2014-Jun-24 04:04N 36°57' E 013°13'5 9.0
2014-Jun-24 03:34N 36°58' E 013°07'11 8.9
2014-Jun-24 02:19N 37°01' E 012°54'65 9.3
2014-Jun-23 19:22N 37°16' E 011°35'7 9.0
2014-Jun-23 18:34N 37°18' E 011°26'9 9.0
2014-Jun-23 17:33N 37°20' E 011°15'9 8.8
2014-Jun-23 16:33N 37°23' E 011°04'9 8.5
2014-Jun-23 15:34N 37°25' E 010°54'8 8.0
2014-Jun-23 14:33N 37°27' E 010°44'17 8.3
2014-Jun-23 12:33N 37°31' E 010°24'9 8.9
2014-Jun-23 11:34N 37°33' E 010°13'9 9.0
2014-Jun-23 10:33N 37°34' E 010°02'9 9.2
2014-Jun-23 09:33N 37°34' E 009°50'9 9.5
2014-Jun-23 08:33N 37°35' E 009°38'87 9.3
2014-Jun-22 23:10N 37°30' E 007°48'8 8.6
2014-Jun-22 22:14N 37°29' E 007°38'204 9.2
2014-Jun-22 00:06N 37°00' E 003°25'3810.3
2014-Jun-21 20:25N 36°55' E 002°38'  
Track history (hours):
 
Tides and Currents Weather Stations Pressure Air Temp Water Temp Dewpoint Dewpoint Depression Visibility Wind Speed Wind Dir Waves Ship Positions

Zeus

Last reported at 2014-Jun-30 14:33 UTC. Time now 2014-Jul-30 19:24 UTC.
Position N 42°14' E 035°05'.
Warning: this ship's position is 30 days out of date.

Length 90 m; draft 4.6 m.

Type: Cargo ship. MMSI: 304011025.

Date/timePositionNaut miles runAvg speedWind from/ knotsBaromVisibWave heightAir tempDewpointWater temp
2014-Jun-30 14:33N 42°14' E 035°05'  
2014-Jun-26 15:14N 37°05' E 023°46'45 9.3
2014-Jun-26 10:22N 36°27' E 023°16'423 8.9
2014-Jun-24 11:04N 36°41' E 014°30'5 9.8
2014-Jun-24 10:34N 36°42' E 014°24'9 9.4
2014-Jun-24 09:34N 36°45' E 014°13'9 9.1
2014-Jun-24 08:33N 36°47' E 014°02'9 9.1
2014-Jun-24 07:33N 36°49' E 013°51'9 9.0
2014-Jun-24 06:33N 36°51' E 013°40'9 8.9
2014-Jun-24 05:33N 36°53' E 013°29'13 8.9
2014-Jun-24 04:04N 36°57' E 013°13'5 9.0
2014-Jun-24 03:34N 36°58' E 013°07'11 8.9
2014-Jun-24 02:19N 37°01' E 012°54'65 9.3
2014-Jun-23 19:22N 37°16' E 011°35'7 9.0
2014-Jun-23 18:34N 37°18' E 011°26'9 9.0
2014-Jun-23 17:33N 37°20' E 011°15'9 8.8
2014-Jun-23 16:33N 37°23' E 011°04'9 8.5
2014-Jun-23 15:34N 37°25' E 010°54'8 8.0
2014-Jun-23 14:33N 37°27' E 010°44'17 8.3
2014-Jun-23 12:33N 37°31' E 010°24'9 8.9
2014-Jun-23 11:34N 37°33' E 010°13'9 9.0
2014-Jun-23 10:33N 37°34' E 010°02'9 9.2
2014-Jun-23 09:33N 37°34' E 009°50'9 9.5
2014-Jun-23 08:33N 37°35' E 009°38'87 9.3
2014-Jun-22 23:10N 37°30' E 007°48'8 8.6
2014-Jun-22 22:14N 37°29' E 007°38'204 9.2
2014-Jun-22 00:06N 37°00' E 003°25'3810.3
2014-Jun-21 20:25N 36°55' E 002°38'  

Dump ship's entire track history